Time;durP1;ratioP1;P1;durP2;ratioP2;P2;SDS_P1;SDS_P2;PMS_P1;PMS_P2;Temp;Humidity;BMP_temperature;BMP_pressure;BME280_temperature;BME280_humidity;BME280_pressure;Samples;Min_cycle;Max_cycle;Signal;HPM_P1;HPM_P2
2022/10/17 00:02:01;;;;;;;6.40;1.40;;;15.60;90.60;;;;;;5035739;28;20049;-68
2022/10/17 00:04:27;;;;;;;7.30;1.23;;;15.90;88.60;;;;;;5037644;28;20038;-68
2022/10/17 00:06:52;;;;;;;6.82;1.40;;;16.10;88.40;;;;;;5040593;28;20104;-68
2022/10/17 00:09:18;;;;;;;7.38;1.70;;;16.20;88.80;;;;;;5035310;28;20029;-68
2022/10/17 00:11:46;;;;;;;7.53;1.73;;;16.20;88.90;;;;;;5035457;28;20041;-68
2022/10/17 00:14:12;;;;;;;5.30;1.50;;;16.20;88.40;;;;;;5041160;28;20109;-68
2022/10/17 00:16:38;;;;;;;6.40;1.73;;;16.30;88.30;;;;;;5033694;28;20478;-67
2022/10/17 00:19:05;;;;;;;4.82;1.50;;;16.30;87.70;;;;;;5053904;28;20091;-66
2022/10/17 00:21:34;;;;;;;7.82;1.45;;;16.40;88.30;;;;;;5035510;28;20022;-67
2022/10/17 00:24:00;;;;;;;5.55;1.33;;;16.20;88.90;;;;;;5047433;28;20029;-68
2022/10/17 00:26:28;;;;;;;4.22;1.50;;;16.20;88.50;;;;;;5031407;28;20034;-68
2022/10/17 00:28:54;;;;;;;5.90;1.60;;;16.50;87.50;;;;;;5033295;28;20033;-67
2022/10/17 00:31:21;;;;;;;3.92;1.42;;;16.40;88.20;;;;;;5037519;28;20034;-68
2022/10/17 00:33:47;;;;;;;6.13;1.80;;;16.20;89.10;;;;;;5037944;28;20025;-68
2022/10/17 00:36:20;;;;;;;9.60;1.90;;;16.10;89.30;;;;;;5018513;28;20373;-68
2022/10/17 00:38:49;;;;;;;7.20;1.63;;;16.00;90.00;;;;;;5035234;28;20047;-67
2022/10/17 00:41:17;;;;;;;6.18;1.65;;;15.70;90.80;;;;;;5034309;28;20041;-68
2022/10/17 00:44:04;;;;;;;8.27;2.00;;;15.70;90.80;;;;;;5041623;28;20045;-67
2022/10/17 00:46:39;;;;;;;5.38;1.50;;;15.80;90.50;;;;;;5033284;28;20063;-66
2022/10/17 00:49:08;;;;;;;6.28;1.60;;;15.90;90.20;;;;;;5035793;28;20017;-65
2022/10/17 00:51:45;;;;;;;3.42;1.45;;;15.90;90.30;;;;;;5037598;28;20038;-67
2022/10/17 00:54:13;;;;;;;5.03;1.40;;;15.90;90.40;;;;;;5049450;28;20444;-67
2022/10/17 00:56:39;;;;;;;8.52;1.45;;;15.90;90.60;;;;;;5033477;28;20046;-67
2022/10/17 00:59:07;;;;;;;8.57;1.85;;;15.80;90.60;;;;;;5034289;28;20024;-68
2022/10/17 01:01:34;;;;;;;4.38;1.92;;;15.70;90.70;;;;;;5033312;28;20026;-68
2022/10/17 01:04:00;;;;;;;6.85;1.70;;;15.70;90.70;;;;;;5035907;28;20045;-68
2022/10/17 01:06:25;;;;;;;6.70;1.70;;;15.60;91.60;;;;;;5033338;28;20025;-68
2022/10/17 01:08:51;;;;;;;7.70;1.77;;;15.30;92.30;;;;;;5036884;28;20037;-68
2022/10/17 01:11:22;;;;;;;7.57;1.80;;;15.20;92.90;;;;;;5032632;28;20025;-68
2022/10/17 01:13:54;;;;;;;7.30;1.70;;;14.90;93.90;;;;;;5034554;28;20026;-68
2022/10/17 01:16:20;;;;;;;8.40;1.80;;;14.70;94.80;;;;;;5031042;28;20032;-68
2022/10/17 01:18:58;;;;;;;9.20;2.05;;;14.50;95.40;;;;;;5024473;28;20319;-68
2022/10/17 01:21:39;;;;;;;6.35;1.63;;;14.30;96.00;;;;;;5035172;28;20105;-68
2022/10/17 01:24:32;;;;;;;6.20;1.88;;;14.20;96.50;;;;;;5044698;28;20025;-67
2022/10/17 01:27:25;;;;;;;4.35;1.52;;;14.00;96.80;;;;;;5026322;28;20100;-67
2022/10/17 01:29:54;;;;;;;8.30;1.98;;;14.10;96.80;;;;;;5030997;28;20041;-68
2022/10/17 01:32:30;;;;;;;5.90;1.60;;;14.10;96.60;;;;;;5032106;28;20033;-68
2022/10/17 01:35:03;;;;;;;8.45;1.73;;;14.10;96.40;;;;;;5029784;28;20029;-68
2022/10/17 01:37:52;;;;;;;7.75;1.65;;;14.00;96.70;;;;;;5022993;28;20029;-67
2022/10/17 01:40:40;;;;;;;4.57;1.58;;;14.00;96.50;;;;;;5029755;28;20037;-67
2022/10/17 01:43:13;;;;;;;7.43;1.55;;;14.10;96.40;;;;;;5036523;28;20414;-68
2022/10/17 01:46:01;;;;;;;6.88;1.70;;;14.00;96.70;;;;;;5032022;28;20410;-68
2022/10/17 01:48:34;;;;;;;3.97;1.50;;;13.80;97.20;;;;;;5031423;28;20067;-68
2022/10/17 01:51:34;;;;;;;5.07;1.47;;;13.70;97.40;;;;;;5015637;28;20056;-67
2022/10/17 01:54:08;;;;;;;6.35;1.73;;;13.60;97.70;;;;;;5032256;28;20284;-68
2022/10/17 01:56:34;;;;;;;5.18;1.70;;;13.60;97.50;;;;;;5029338;28;20022;-68
2022/10/17 01:59:10;;;;;;;7.22;1.58;;;13.60;97.50;;;;;;5031144;28;20037;-67
2022/10/17 02:01:37;;;;;;;4.55;1.70;;;13.50;97.70;;;;;;5038279;28;20017;-67
2022/10/17 02:04:05;;;;;;;4.60;1.70;;;13.40;98.00;;;;;;5027518;28;20017;-67
2022/10/17 02:06:34;;;;;;;5.20;1.70;;;13.30;98.00;;;;;;5032425;28;20026;-68
2022/10/17 02:09:01;;;;;;;5.03;1.88;;;13.30;98.00;;;;;;5029755;28;20032;-67
2022/10/17 02:11:27;;;;;;;5.07;1.77;;;13.10;98.00;;;;;;5031277;28;20030;-68
2022/10/17 02:14:22;;;;;;;6.18;1.85;;;12.90;98.00;;;;;;5030203;28;20299;-67
2022/10/17 02:17:06;;;;;;;2.88;1.50;;;12.70;98.00;;;;;;5034219;28;20052;-68
2022/10/17 02:19:50;;;;;;;9.27;2.10;;;12.60;98.00;;;;;;5034804;28;20033;-68
2022/10/17 02:22:31;;;;;;;5.25;1.60;;;12.70;98.00;;;;;;5031378;28;20349;-67
2022/10/17 02:25:13;;;;;;;8.00;1.77;;;12.90;98.00;;;;;;5026308;28;20036;-69
2022/10/17 02:27:46;;;;;;;7.65;1.75;;;13.10;98.00;;;;;;5029179;28;20029;-67
2022/10/17 02:30:32;;;;;;;4.38;1.50;;;13.20;98.00;;;;;;5029199;28;20041;-67
2022/10/17 02:33:10;;;;;;;4.35;1.80;;;13.30;98.00;;;;;;5029430;28;20072;-66
2022/10/17 02:35:42;;;;;;;4.95;1.70;;;13.30;98.00;;;;;;5025966;28;20414;-67
2022/10/17 02:38:11;;;;;;;7.07;1.98;;;13.30;98.00;;;;;;5031489;28;20318;-67
2022/10/17 02:40:38;;;;;;;4.40;1.60;;;13.10;98.00;;;;;;5025223;28;20109;-67
2022/10/17 02:43:05;;;;;;;7.28;1.80;;;12.80;98.00;;;;;;5025441;28;20299;-67
2022/10/17 02:45:34;;;;;;;5.13;1.83;;;12.60;98.00;;;;;;5026356;28;20038;-67
2022/10/17 02:48:15;;;;;;;4.30;1.80;;;12.50;98.00;;;;;;5028830;28;20053;-67
2022/10/17 02:50:52;;;;;;;6.38;1.77;;;12.40;98.00;;;;;;5027310;28;20091;-67
2022/10/17 02:53:32;;;;;;;8.32;2.00;;;12.40;98.00;;;;;;5026211;28;20084;-68
2022/10/17 02:56:01;;;;;;;10.60;1.92;;;12.60;98.00;;;;;;5025730;28;20030;-67
2022/10/17 02:58:31;;;;;;;5.57;1.60;;;12.70;98.00;;;;;;5037307;28;21573;-66
2022/10/17 03:00:58;;;;;;;6.53;1.98;;;12.80;98.00;;;;;;5030548;28;20029;-67
2022/10/17 03:03:29;;;;;;;5.88;1.77;;;12.80;98.00;;;;;;5030437;28;20113;-67
2022/10/17 03:05:55;;;;;;;6.35;1.83;;;13.00;98.00;;;;;;5034195;28;20052;-67
2022/10/17 03:08:21;;;;;;;3.65;1.73;;;13.20;98.00;;;;;;5030563;28;20029;-67
2022/10/17 03:10:47;;;;;;;4.22;2.05;;;13.40;98.00;;;;;;5033727;28;20025;-67
2022/10/17 03:13:13;;;;;;;7.05;1.92;;;13.40;98.00;;;;;;5031161;28;20082;-67
2022/10/17 03:15:39;;;;;;;5.20;1.75;;;13.40;97.80;;;;;;5031883;28;20340;-67
2022/10/17 03:18:05;;;;;;;4.07;1.60;;;13.50;97.70;;;;;;5031304;28;20017;-67
2022/10/17 03:20:31;;;;;;;6.10;2.20;;;13.50;97.50;;;;;;5031950;28;21832;-68
2022/10/17 03:22:56;;;;;;;5.45;1.50;;;13.60;97.40;;;;;;5032367;28;20032;-67
2022/10/17 03:25:22;;;;;;;5.45;1.50;;;13.60;97.40;;;;;;5032975;28;20056;-66
2022/10/17 03:27:48;;;;;;;5.75;1.50;;;13.50;97.60;;;;;;5035319;28;20025;-67
2022/10/17 03:30:14;;;;;;;5.00;1.55;;;13.40;97.60;;;;;;5032351;28;20035;-67
2022/10/17 03:32:39;;;;;;;3.88;1.55;;;13.30;98.00;;;;;;5034262;28;20029;-67
2022/10/17 03:35:08;;;;;;;6.97;2.10;;;13.30;98.00;;;;;;5032854;28;20021;-67
2022/10/17 03:37:33;;;;;;;3.33;1.73;;;13.40;98.00;;;;;;5029713;28;20025;-67
2022/10/17 03:39:59;;;;;;;5.03;1.77;;;13.40;98.00;;;;;;5032225;28;20022;-65
2022/10/17 03:42:25;;;;;;;7.13;1.80;;;13.40;98.00;;;;;;5028839;28;20048;-66
2022/10/17 03:44:51;;;;;;;4.80;1.67;;;13.30;98.00;;;;;;5031277;28;20621;-66
2022/10/17 03:47:16;;;;;;;5.43;1.80;;;13.10;98.00;;;;;;5030889;28;20029;-66
2022/10/17 03:49:42;;;;;;;4.05;1.70;;;12.90;98.00;;;;;;5032346;28;20029;-66
2022/10/17 03:52:14;;;;;;;5.18;1.58;;;12.70;98.00;;;;;;5032869;28;20052;-66
2022/10/17 03:54:40;;;;;;;5.90;1.90;;;12.60;98.00;;;;;;5029679;28;20421;-65
2022/10/17 03:57:06;;;;;;;5.43;1.65;;;12.80;98.00;;;;;;5029766;28;20025;-67
2022/10/17 03:59:32;;;;;;;6.60;2.00;;;12.90;98.00;;;;;;5031225;28;20025;-66
2022/10/17 04:01:58;;;;;;;4.25;1.77;;;13.00;98.00;;;;;;5028846;28;20065;-66
2022/10/17 04:04:26;;;;;;;5.85;2.13;;;13.10;98.00;;;;;;5029014;28;20029;-66
2022/10/17 04:06:52;;;;;;;4.75;1.63;;;13.00;98.00;;;;;;5030639;28;20032;-66
2022/10/17 04:09:20;;;;;;;3.75;1.83;;;13.00;98.00;;;;;;5029022;28;20461;-66
2022/10/17 04:11:46;;;;;;;6.70;2.00;;;12.90;98.00;;;;;;5010190;28;20029;-67
2022/10/17 04:14:11;;;;;;;5.75;2.10;;;12.90;98.00;;;;;;5028282;28;20028;-67
2022/10/17 04:16:40;;;;;;;5.22;2.00;;;12.80;98.00;;;;;;5031758;28;20100;-67
2022/10/17 04:19:06;;;;;;;4.20;1.83;;;12.80;98.00;;;;;;5032369;28;20104;-67
2022/10/17 04:21:32;;;;;;;4.57;1.70;;;12.80;98.00;;;;;;5031148;28;20100;-67
2022/10/17 04:23:59;;;;;;;7.72;2.00;;;12.80;98.00;;;;;;5035182;28;20349;-67
2022/10/17 04:26:26;;;;;;;6.25;1.92;;;12.90;98.00;;;;;;5030416;28;20319;-67
2022/10/17 04:28:52;;;;;;;6.40;2.00;;;12.90;98.00;;;;;;5036231;28;20480;-67
2022/10/17 04:31:18;;;;;;;4.80;1.98;;;12.90;98.00;;;;;;5032897;28;20022;-67
2022/10/17 04:33:47;;;;;;;5.63;2.25;;;12.80;98.00;;;;;;5030118;28;20109;-67
2022/10/17 04:36:16;;;;;;;6.25;1.70;;;12.80;98.00;;;;;;5033082;28;20048;-67
2022/10/17 04:38:42;;;;;;;3.85;1.70;;;12.80;98.00;;;;;;5033405;28;20026;-67
2022/10/17 04:41:11;;;;;;;7.50;1.75;;;12.80;98.00;;;;;;5030260;28;20031;-67
2022/10/17 04:43:38;;;;;;;5.20;1.67;;;12.90;98.00;;;;;;5013908;28;20064;-67
2022/10/17 04:46:06;;;;;;;9.35;2.55;;;12.90;98.00;;;;;;5030251;28;20079;-66
2022/10/17 04:48:32;;;;;;;5.53;1.85;;;12.80;98.00;;;;;;5029710;28;20532;-67
2022/10/17 04:51:02;;;;;;;7.60;2.08;;;12.70;98.00;;;;;;5032885;28;20037;-67
2022/10/17 04:53:30;;;;;;;4.97;2.10;;;12.40;98.00;;;;;;5035668;28;20357;-67
2022/10/17 04:55:56;;;;;;;5.93;2.25;;;12.30;98.00;;;;;;5029188;28;20026;-67
2022/10/17 04:58:21;;;;;;;11.05;2.00;;;12.00;98.00;;;;;;5029957;28;20430;-67
2022/10/17 05:00:48;;;;;;;8.75;1.80;;;12.00;98.00;;;;;;5030889;28;20021;-66
2022/10/17 05:03:14;;;;;;;8.88;1.70;;;12.20;98.00;;;;;;5030422;28;20436;-67
2022/10/17 05:05:41;;;;;;;6.97;1.88;;;12.30;98.00;;;;;;5032933;28;20104;-67
2022/10/17 05:08:08;;;;;;;6.30;2.20;;;12.50;98.00;;;;;;5029845;28;20021;-67
2022/10/17 05:10:39;;;;;;;5.28;1.73;;;12.50;98.00;;;;;;5013220;28;20038;-67
2022/10/17 05:13:05;;;;;;;5.32;1.77;;;12.50;98.00;;;;;;5030124;28;20025;-67
2022/10/17 05:15:31;;;;;;;4.57;1.70;;;12.50;98.00;;;;;;5045504;28;20030;-67
2022/10/17 05:17:57;;;;;;;4.25;1.90;;;12.50;98.00;;;;;;5032117;28;20088;-67
2022/10/17 05:20:23;;;;;;;3.45;1.70;;;12.50;98.00;;;;;;5032238;28;20406;-66
2022/10/17 05:22:49;;;;;;;4.68;1.75;;;12.60;98.00;;;;;;5031536;28;20131;-67
2022/10/17 05:25:15;;;;;;;3.85;1.80;;;12.60;98.00;;;;;;5030578;28;20596;-67
2022/10/17 05:27:41;;;;;;;6.55;2.40;;;12.60;98.00;;;;;;5029565;28;20446;-66
2022/10/17 05:30:07;;;;;;;5.18;1.70;;;12.60;98.00;;;;;;5016479;28;20033;-67
2022/10/17 05:32:33;;;;;;;4.20;1.85;;;12.50;98.00;;;;;;5033754;28;20033;-67
2022/10/17 05:34:58;;;;;;;4.28;1.60;;;12.60;98.00;;;;;;5031315;28;20030;-67
2022/10/17 05:37:24;;;;;;;3.88;1.85;;;12.80;98.00;;;;;;5028283;28;21094;-67
2022/10/17 05:39:50;;;;;;;7.97;1.90;;;12.90;98.00;;;;;;5030695;28;20060;-67
2022/10/17 05:42:15;;;;;;;5.40;1.95;;;12.90;98.00;;;;;;5028952;28;20017;-67
2022/10/17 05:44:41;;;;;;;6.05;1.65;;;12.90;98.00;;;;;;5031110;28;20030;-67
2022/10/17 05:47:10;;;;;;;3.35;1.55;;;12.90;98.00;;;;;;5031066;28;20052;-67
2022/10/17 05:49:35;;;;;;;3.97;1.75;;;12.90;98.00;;;;;;5031646;28;20025;-67
2022/10/17 05:52:01;;;;;;;6.20;1.88;;;12.90;98.00;;;;;;5030042;28;20337;-67
2022/10/17 05:54:27;;;;;;;4.78;1.55;;;12.90;98.00;;;;;;5030586;28;20038;-67
2022/10/17 05:56:56;;;;;;;6.55;1.75;;;13.00;98.00;;;;;;5026568;28;20360;-67
2022/10/17 05:59:24;;;;;;;4.10;1.80;;;12.90;98.00;;;;;;5030735;28;20029;-67
2022/10/17 06:01:50;;;;;;;4.95;1.90;;;12.90;98.00;;;;;;5038235;28;20418;-67
2022/10/17 06:04:16;;;;;;;7.72;2.30;;;12.80;98.00;;;;;;5035988;28;20040;-68
2022/10/17 06:06:41;;;;;;;4.28;2.00;;;12.70;98.00;;;;;;5035582;28;20394;-68
2022/10/17 06:09:08;;;;;;;6.20;1.77;;;12.70;98.00;;;;;;5035646;28;20025;-67
2022/10/17 06:11:34;;;;;;;5.93;1.90;;;12.60;98.00;;;;;;5033656;28;20108;-68
2022/10/17 06:14:01;;;;;;;3.80;1.80;;;12.70;98.00;;;;;;5029710;28;20136;-67
2022/10/17 06:16:26;;;;;;;4.72;1.98;;;12.70;98.00;;;;;;5029476;28;20092;-67
2022/10/17 06:18:52;;;;;;;9.48;2.03;;;12.80;98.00;;;;;;5030199;28;20326;-67
2022/10/17 06:21:26;;;;;;;4.65;2.20;;;12.90;98.00;;;;;;5031609;28;20024;-68
2022/10/17 06:23:52;;;;;;;5.93;2.67;;;13.10;98.00;;;;;;5030513;28;20022;-68
2022/10/17 06:26:18;;;;;;;6.32;1.90;;;13.30;98.00;;;;;;5033721;28;20318;-67
2022/10/17 06:28:44;;;;;;;6.20;2.13;;;13.40;98.00;;;;;;5032993;28;20053;-67
2022/10/17 06:31:12;;;;;;;3.47;1.67;;;13.50;98.00;;;;;;5035133;28;20409;-68
2022/10/17 06:33:38;;;;;;;4.18;1.80;;;13.60;98.00;;;;;;5033508;28;20044;-67
2022/10/17 06:36:10;;;;;;;5.85;1.80;;;13.70;97.90;;;;;;5035783;28;20041;-66
2022/10/17 06:38:36;;;;;;;6.70;2.17;;;13.60;98.00;;;;;;5031381;28;20071;-66
2022/10/17 06:41:13;;;;;;;6.57;2.03;;;13.50;98.00;;;;;;5037460;28;20035;-65
2022/10/17 06:43:46;;;;;;;7.05;2.05;;;13.40;98.00;;;;;;5037247;28;20026;-66
2022/10/17 06:46:13;;;;;;;9.00;2.15;;;13.40;98.00;;;;;;5044250;28;20043;-68
2022/10/17 06:48:39;;;;;;;7.18;2.20;;;13.30;98.00;;;;;;5032122;28;20104;-68
2022/10/17 06:51:08;;;;;;;10.10;2.53;;;13.30;98.00;;;;;;5038853;28;20069;-68
2022/10/17 06:53:34;;;;;;;5.97;1.73;;;13.20;98.00;;;;;;5052165;28;20064;-68
2022/10/17 06:56:02;;;;;;;6.60;1.95;;;13.10;98.00;;;;;;5040141;28;20029;-68
2022/10/17 06:58:29;;;;;;;7.32;2.08;;;13.00;98.00;;;;;;5049893;28;20033;-68
2022/10/17 07:01:03;;;;;;;4.60;1.92;;;13.00;98.00;;;;;;5045577;28;20083;-67
2022/10/17 07:03:32;;;;;;;5.30;2.10;;;13.10;98.00;;;;;;5038596;28;20033;-67
2022/10/17 07:05:58;;;;;;;7.20;2.40;;;13.20;98.00;;;;;;5043056;28;20057;-67
2022/10/17 07:08:24;;;;;;;4.78;2.58;;;13.20;98.00;;;;;;5037284;28;20068;-67
2022/10/17 07:10:50;;;;;;;6.47;2.45;;;13.30;98.00;;;;;;5035640;28;20030;-67
2022/10/17 07:13:17;;;;;;;3.88;2.00;;;13.40;98.00;;;;;;5038201;28;20104;-67
2022/10/17 07:15:43;;;;;;;5.95;2.33;;;13.70;98.00;;;;;;5035356;28;20053;-67
2022/10/17 07:18:09;;;;;;;7.10;2.00;;;14.00;98.00;;;;;;5043710;28;20053;-68
2022/10/17 07:20:37;;;;;;;8.60;2.17;;;14.20;98.00;;;;;;5038367;28;20034;-67
2022/10/17 07:23:03;;;;;;;6.63;2.10;;;14.30;98.00;;;;;;5038171;28;20025;-67
2022/10/17 07:25:29;;;;;;;8.05;3.60;;;14.50;98.00;;;;;;5042897;28;20047;-67
2022/10/17 07:27:55;;;;;;;11.40;6.45;;;14.70;98.00;;;;;;5037341;28;20031;-67
2022/10/17 07:30:21;;;;;;;10.35;5.20;;;14.80;98.00;;;;;;5037378;28;20022;-67
2022/10/17 07:32:47;;;;;;;6.82;3.25;;;14.80;97.40;;;;;;5037463;28;20026;-67
2022/10/17 07:35:13;;;;;;;6.25;3.53;;;14.90;96.90;;;;;;5032259;28;20048;-67
2022/10/17 07:37:39;;;;;;;10.15;3.25;;;15.00;96.60;;;;;;5036869;28;20100;-67
2022/10/17 07:40:06;;;;;;;9.70;3.80;;;15.10;96.50;;;;;;5034385;28;20139;-67
2022/10/17 07:42:35;;;;;;;5.72;3.28;;;15.30;96.30;;;;;;5026171;28;20104;-67
2022/10/17 07:45:01;;;;;;;4.22;2.47;;;15.50;95.70;;;;;;5029185;28;20033;-68
2022/10/17 07:47:29;;;;;;;7.10;2.70;;;15.70;95.00;;;;;;5036782;28;20083;-67
2022/10/17 07:49:55;;;;;;;9.35;2.35;;;16.00;94.50;;;;;;5027951;28;20053;-67
2022/10/17 07:52:21;;;;;;;4.80;2.03;;;16.30;94.10;;;;;;5030281;28;20125;-67
2022/10/17 07:54:46;;;;;;;5.95;2.65;;;16.70;93.20;;;;;;5025521;28;20026;-67
2022/10/17 07:57:12;;;;;;;5.72;2.10;;;17.40;92.00;;;;;;5025703;28;20060;-67
2022/10/17 07:59:38;;;;;;;6.53;1.90;;;18.20;89.30;;;;;;5025975;28;20429;-68
2022/10/17 08:02:04;;;;;;;7.13;1.90;;;19.90;86.20;;;;;;5033412;28;20037;-68
2022/10/17 08:04:30;;;;;;;8.15;1.67;;;21.30;82.20;;;;;;5025623;28;20452;-68
2022/10/17 08:06:55;;;;;;;5.20;1.48;;;22.60;79.00;;;;;;5025765;28;20041;-67
2022/10/17 08:09:21;;;;;;;3.53;1.65;;;23.70;76.20;;;;;;5027450;28;20036;-67
2022/10/17 08:11:47;;;;;;;6.20;1.95;;;24.50;74.40;;;;;;5024804;28;20036;-67
2022/10/17 08:14:15;;;;;;;4.65;1.13;;;24.60;75.10;;;;;;5024928;28;20041;-67
2022/10/17 08:16:42;;;;;;;5.30;1.05;;;25.10;74.60;;;;;;5031261;28;20039;-67
2022/10/17 08:19:07;;;;;;;5.35;1.20;;;25.90;73.00;;;;;;5026318;28;20322;-67
2022/10/17 08:21:34;;;;;;;4.07;1.33;;;26.30;72.00;;;;;;5025006;28;20025;-67
2022/10/17 08:24:01;;;;;;;5.40;1.58;;;25.90;71.60;;;;;;5026210;28;20039;-67
2022/10/17 08:26:27;;;;;;;6.40;1.42;;;25.40;73.10;;;;;;5022827;28;20107;-67
2022/10/17 08:28:53;;;;;;;7.50;2.00;;;25.50;72.90;;;;;;5025370;28;20032;-67
2022/10/17 08:31:19;;;;;;;9.80;2.47;;;25.70;71.50;;;;;;5033143;28;20415;-67
2022/10/17 08:33:46;;;;;;;5.82;2.30;;;25.10;72.30;;;;;;5037613;28;20025;-67
2022/10/17 08:36:14;;;;;;;12.25;2.35;;;24.40;73.90;;;;;;5038566;28;20021;-67
2022/10/17 08:38:42;;;;;;;13.52;2.90;;;24.00;73.90;;;;;;5022331;28;20325;-67
2022/10/17 08:41:36;;;;;;;8.75;2.50;;;23.60;74.70;;;;;;5028973;28;20085;-67
2022/10/17 08:44:29;;;;;;;10.10;1.75;;;23.70;73.80;;;;;;5025877;28;20478;-68
2022/10/17 08:47:00;;;;;;;8.00;1.90;;;23.50;74.00;;;;;;5027648;28;20029;-68
2022/10/17 08:49:50;;;;;;;6.90;2.05;;;24.00;73.70;;;;;;5029409;28;20037;-67
2022/10/17 08:52:40;;;;;;;6.30;1.70;;;25.00;72.30;;;;;;5026026;28;20068;-68
2022/10/17 08:55:25;;;;;;;6.05;1.80;;;25.70;71.00;;;;;;5035504;28;20724;-68
2022/10/17 08:57:50;;;;;;;6.28;1.70;;;26.60;69.00;;;;;;5021520;28;20026;-68
2022/10/17 09:00:19;;;;;;;6.60;1.60;;;27.20;68.90;;;;;;5025282;28;20473;-68
2022/10/17 09:03:15;;;;;;;4.35;1.38;;;28.50;67.50;;;;;;5037076;28;20032;-68
2022/10/17 09:05:50;;;;;;;6.45;1.60;;;28.80;66.20;;;;;;5037059;28;20082;-68
2022/10/17 09:08:21;;;;;;;4.93;1.55;;;29.10;65.80;;;;;;5036935;28;20029;-68
2022/10/17 09:11:11;;;;;;;5.20;1.60;;;29.50;65.40;;;;;;5035557;28;20029;-67
2022/10/17 09:14:20;;;;;;;7.88;1.80;;;29.50;66.00;;;;;;5036752;28;20033;-68
2022/10/17 09:16:57;;;;;;;8.05;2.00;;;29.50;64.40;;;;;;5035861;28;20350;-68
2022/10/17 09:19:31;;;;;;;5.45;1.38;;;28.70;66.20;;;;;;5036505;28;20030;-68
2022/10/17 09:22:14;;;;;;;6.18;1.50;;;28.40;68.20;;;;;;5036991;28;20373;-68
2022/10/17 09:25:09;;;;;;;4.32;1.20;;;29.30;67.10;;;;;;5036588;28;20406;-68
2022/10/17 09:27:40;;;;;;;6.90;1.10;;;29.30;65.90;;;;;;5023614;28;20065;-68
2022/10/17 09:30:41;;;;;;;3.72;1.10;;;29.90;65.70;;;;;;5035162;28;20112;-67
2022/10/17 09:33:14;;;;;;;3.03;1.08;;;30.40;64.20;;;;;;5036513;28;20030;-67
2022/10/17 09:35:40;;;;;;;4.95;1.20;;;30.80;61.10;;;;;;5036174;28;20208;-67
2022/10/17 09:38:15;;;;;;;6.30;1.10;;;31.30;57.80;;;;;;5036473;28;20029;-67
2022/10/17 09:40:41;;;;;;;2.90;0.95;;;31.60;60.40;;;;;;5035171;28;20025;-67
2022/10/17 09:43:10;;;;;;;5.00;0.90;;;32.10;57.30;;;;;;5036379;28;20021;-68
2022/10/17 09:45:46;;;;;;;3.72;0.98;;;31.80;58.20;;;;;;5035542;28;20426;-68
2022/10/17 09:48:12;;;;;;;3.50;1.02;;;31.00;60.40;;;;;;5036304;28;20025;-68
2022/10/17 09:50:38;;;;;;;2.10;0.90;;;31.00;59.70;;;;;;5036031;28;20026;-68
2022/10/17 09:53:20;;;;;;;3.15;1.00;;;30.80;60.60;;;;;;5036285;28;20330;-68
2022/10/17 09:55:55;;;;;;;6.10;1.10;;;30.70;61.20;;;;;;5034779;28;20065;-68
2022/10/17 09:58:21;;;;;;;3.55;1.25;;;30.40;61.90;;;;;;5035461;28;20438;-68
2022/10/17 10:00:48;;;;;;;5.15;0.90;;;30.20;61.60;;;;;;5036090;28;20021;-68
2022/10/17 10:03:19;;;;;;;6.22;1.00;;;30.40;63.00;;;;;;5036179;28;20025;-68
2022/10/17 10:06:16;;;;;;;2.75;0.90;;;31.50;60.40;;;;;;5035349;28;20029;-68
2022/10/17 10:08:57;;;;;;;4.13;1.10;;;32.40;57.70;;;;;;5035130;28;20334;-68
2022/10/17 10:11:56;;;;;;;5.35;1.20;;;32.80;53.00;;;;;;5034696;28;20045;-67
2022/10/17 10:14:27;;;;;;;4.93;1.30;;;32.30;51.10;;;;;;5035040;28;20083;-68
2022/10/17 10:16:53;;;;;;;4.68;1.30;;;31.60;50.90;;;;;;5035968;28;20033;-68
2022/10/17 10:19:20;;;;;;;3.15;1.10;;;31.30;55.00;;;;;;5034628;28;20030;-68
2022/10/17 10:21:55;;;;;;;6.97;1.30;;;31.30;57.10;;;;;;5018475;28;20098;-68
2022/10/17 10:24:22;;;;;;;4.30;1.20;;;31.20;51.90;;;;;;5035815;28;20030;-68
2022/10/17 10:26:53;;;;;;;5.25;1.20;;;30.80;53.30;;;;;;5034438;28;20105;-67
2022/10/17 10:29:37;;;;;;;4.00;1.50;;;29.80;55.80;;;;;;5035506;28;20324;-68
2022/10/17 10:32:21;;;;;;;;;;;29.30;56.60;;;;;;5034749;28;20056;-68
2022/10/17 10:34:54;;;;;;;8.52;1.77;;;29.70;54.80;;;;;;5035740;28;19999;-67
2022/10/17 10:37:24;;;;;;;8.93;1.95;;;28.90;56.60;;;;;;5035736;28;20017;-68
2022/10/17 10:39:56;;;;;;;8.52;1.40;;;28.70;55.30;;;;;;5034357;28;20432;-68
2022/10/17 10:42:24;;;;;;;8.65;1.60;;;28.60;54.50;;;;;;5035353;28;20026;-67
2022/10/17 10:44:51;;;;;;;6.32;1.50;;;28.40;56.80;;;;;;5035617;28;20033;-67
2022/10/17 10:47:35;;;;;;;10.80;1.95;;;28.40;57.10;;;;;;5034953;28;20017;-67
2022/10/17 10:50:35;;;;;;;8.35;1.60;;;28.20;56.20;;;;;;5034668;28;20026;-67
2022/10/17 10:53:13;;;;;;;7.95;1.83;;;27.90;56.40;;;;;;5034411;28;20041;-67
2022/10/17 10:56:08;;;;;;;9.13;1.67;;;27.80;58.20;;;;;;5034311;28;20038;-67
2022/10/17 10:58:53;;;;;;;10.90;1.73;;;27.90;59.30;;;;;;5022858;28;20113;-67
2022/10/17 11:01:34;;;;;;;5.72;1.80;;;28.20;58.60;;;;;;5035709;28;20326;-67
2022/10/17 11:04:37;;;;;;;6.22;1.30;;;28.30;59.60;;;;;;5035688;28;20033;-67
2022/10/17 11:07:14;;;;;;;9.43;1.80;;;28.10;58.40;;;;;;5035558;28;20409;-67
2022/10/17 11:09:40;;;;;;;4.40;1.40;;;28.10;59.30;;;;;;5035381;28;20057;-67
2022/10/17 11:12:46;;;;;;;8.18;1.60;;;28.40;59.20;;;;;;5034251;28;20061;-67
2022/10/17 11:15:36;;;;;;;7.90;2.10;;;28.70;59.00;;;;;;5026364;28;20323;-67
2022/10/17 11:18:34;;;;;;;7.03;1.90;;;28.40;59.70;;;;;;5035517;28;20049;-67
2022/10/17 11:21:02;;;;;;;6.82;1.83;;;28.50;58.90;;;;;;5022914;28;20045;-67
2022/10/17 11:23:53;;;;;;;10.23;2.10;;;28.40;59.50;;;;;;5038370;28;20083;-67
2022/10/17 11:26:25;;;;;;;6.82;2.33;;;28.00;59.50;;;;;;5037109;28;20037;-67
2022/10/17 11:29:05;;;;;;;6.47;1.65;;;28.00;59.90;;;;;;5038925;28;20022;-67
2022/10/17 11:31:35;;;;;;;5.63;1.58;;;27.60;59.70;;;;;;5038254;28;20037;-67
2022/10/17 11:34:19;;;;;;;11.02;2.03;;;27.80;60.60;;;;;;5038633;28;20112;-67
2022/10/17 11:36:49;;;;;;;5.13;1.75;;;27.80;60.20;;;;;;5038589;28;20033;-67
2022/10/17 11:39:47;;;;;;;6.30;2.08;;;27.70;59.80;;;;;;5038782;28;20026;-67
2022/10/17 11:42:30;;;;;;;5.80;2.03;;;27.40;63.10;;;;;;5033058;28;20060;-67
2022/10/17 11:45:04;;;;;;;6.72;2.25;;;27.80;64.20;;;;;;5049925;28;20041;-67
2022/10/17 11:47:54;;;;;;;8.88;1.85;;;27.90;63.80;;;;;;5038396;28;20021;-67
2022/10/17 11:50:31;;;;;;;10.30;1.90;;;27.70;60.40;;;;;;5058392;28;20033;-67
2022/10/17 11:53:07;;;;;;;6.13;2.10;;;27.70;65.10;;;;;;5049314;28;20033;-67
2022/10/17 11:55:37;;;;;;;8.38;2.03;;;27.60;65.70;;;;;;5036081;28;20038;-67
2022/10/17 11:58:11;;;;;;;5.07;2.22;;;27.40;66.20;;;;;;5041207;28;20083;-67
2022/10/17 12:01:15;;;;;;;5.47;2.00;;;27.30;67.20;;;;;;5050995;28;20034;-67
2022/10/17 12:04:17;;;;;;;8.38;2.05;;;27.30;65.40;;;;;;4956701;29;20062;-67
2022/10/17 12:06:54;;;;;;;5.53;2.10;;;27.40;67.00;;;;;;4955046;28;20074;-67
2022/10/17 12:09:36;;;;;;;7.05;2.40;;;27.40;67.00;;;;;;5033240;28;20033;-67
2022/10/17 12:12:03;;;;;;;7.40;2.13;;;26.70;69.50;;;;;;5041210;28;20105;-67
2022/10/17 12:14:39;;;;;;;10.60;2.47;;;26.40;70.80;;;;;;5035979;28;20116;-67
2022/10/17 12:17:31;;;;;;;6.03;2.08;;;26.20;69.90;;;;;;5055758;28;20025;-67
2022/10/17 12:20:26;;;;;;;7.32;1.90;;;26.20;67.50;;;;;;5037237;28;20025;-67
2022/10/17 12:23:21;;;;;;;7.63;2.22;;;26.10;66.50;;;;;;5035889;28;20101;-66
2022/10/17 12:25:49;;;;;;;6.35;1.95;;;25.80;66.00;;;;;;5023208;28;20041;-65
2022/10/17 12:28:23;;;;;;;7.65;1.80;;;25.60;66.40;;;;;;5036771;28;20029;-65
2022/10/17 12:31:12;;;;;;;5.53;1.70;;;25.80;65.60;;;;;;5035862;28;20044;-65
2022/10/17 12:33:53;;;;;;;6.32;1.90;;;25.80;67.40;;;;;;5036699;28;20025;-66
2022/10/17 12:36:21;;;;;;;7.88;1.98;;;25.90;66.30;;;;;;5037435;28;20108;-67
2022/10/17 12:38:49;;;;;;;5.20;1.80;;;25.80;66.50;;;;;;5046622;28;20021;-67
2022/10/17 12:41:37;;;;;;;5.35;1.73;;;25.60;65.20;;;;;;5056416;28;20033;-68
2022/10/17 12:44:12;;;;;;;5.40;1.73;;;25.40;66.20;;;;;;5043581;28;20017;-67
2022/10/17 12:47:02;;;;;;;5.68;1.77;;;25.20;66.70;;;;;;5035927;28;20115;-67
2022/10/17 12:49:50;;;;;;;6.53;2.00;;;25.30;67.30;;;;;;5032664;28;20040;-67
2022/10/17 12:52:41;;;;;;;7.63;2.15;;;25.20;66.10;;;;;;5033412;28;20064;-67
2022/10/17 12:55:17;;;;;;;4.82;1.83;;;25.10;67.60;;;;;;5045952;28;20044;-67
2022/10/17 12:58:06;;;;;;;6.38;1.70;;;25.30;66.60;;;;;;5041887;28;20033;-67
2022/10/17 13:00:52;;;;;;;7.68;1.95;;;25.10;66.50;;;;;;5038722;28;20422;-67
2022/10/17 13:03:25;;;;;;;7.45;1.77;;;25.30;66.00;;;;;;5054917;28;20083;-67
2022/10/17 13:05:53;;;;;;;7.47;1.45;;;25.30;64.90;;;;;;5050566;28;20440;-66
2022/10/17 13:08:27;;;;;;;6.57;1.70;;;25.30;66.60;;;;;;5036879;28;20450;-66
2022/10/17 13:10:53;;;;;;;;;;;25.50;65.00;;;;;;5038892;28;20025;-66
2022/10/17 13:13:36;;;;;;;5.45;1.80;;;25.60;65.00;;;;;;5041847;28;19913;-68
2022/10/17 13:16:02;;;;;;;4.88;1.48;;;25.60;64.10;;;;;;5043085;28;20097;-66